createdAt,value
2019-03-21T00:01:52.951Z,74.30
2019-03-21T00:04:21.420Z,73.90
2019-03-21T00:06:49.887Z,73.90
2019-03-21T00:09:19.538Z,74.00
2019-03-21T00:12:06.367Z,73.40
2019-03-21T00:14:50.007Z,72.90
2019-03-21T00:17:34.043Z,73.00
2019-03-21T00:20:02.734Z,73.20
2019-03-21T00:22:31.289Z,73.60
2019-03-21T00:24:59.751Z,74.20
2019-03-21T00:27:28.735Z,74.70
2019-03-21T00:29:57.191Z,75.00
2019-03-21T00:32:25.727Z,75.10
2019-03-21T00:34:54.216Z,75.20
2019-03-21T00:37:22.680Z,75.50
2019-03-21T00:39:51.167Z,75.70
2019-03-21T00:42:19.799Z,75.80
2019-03-21T00:44:48.264Z,75.80
2019-03-21T00:47:16.744Z,75.70
2019-03-21T00:49:45.231Z,76.00
2019-03-21T00:52:13.699Z,75.90
2019-03-21T00:54:42.170Z,76.30
2019-03-21T00:57:10.663Z,76.60
2019-03-21T00:59:39.127Z,76.30
2019-03-21T01:02:07.592Z,76.60
2019-03-21T01:04:36.082Z,76.60
2019-03-21T01:07:05.459Z,76.80
2019-03-21T01:09:34.061Z,77.00
2019-03-21T01:12:02.692Z,77.40
2019-03-21T01:14:31.159Z,77.10
2019-03-21T01:16:59.691Z,77.00
2019-03-21T01:19:28.183Z,77.40
2019-03-21T01:21:56.648Z,77.70
2019-03-21T01:24:25.120Z,77.60
2019-03-21T01:26:53.623Z,77.90
2019-03-21T01:29:23.256Z,78.00
2019-03-21T01:31:50.931Z,78.10
2019-03-21T01:34:19.422Z,78.10
2019-03-21T01:36:47.883Z,77.90
2019-03-21T01:39:16.343Z,78.50
2019-03-21T01:41:44.874Z,77.90
2019-03-21T01:44:13.331Z,77.70
2019-03-21T01:46:41.798Z,77.80
2019-03-21T01:49:10.294Z,77.90
2019-03-21T01:51:38.759Z,77.80
2019-03-21T01:54:07.303Z,77.70
2019-03-21T01:56:35.820Z,77.90
2019-03-21T01:59:04.527Z,78.00
2019-03-21T02:01:33.173Z,78.30
2019-03-21T02:04:01.740Z,78.60
2019-03-21T02:06:30.196Z,78.70
2019-03-21T02:08:58.659Z,78.60
2019-03-21T02:11:27.220Z,78.70
2019-03-21T02:13:55.679Z,78.60
2019-03-21T02:16:24.147Z,78.80
2019-03-21T02:18:52.636Z,78.80
2019-03-21T02:21:21.165Z,78.80
2019-03-21T02:23:49.620Z,79.90
2019-03-21T02:26:18.109Z,79.20
2019-03-21T02:28:46.565Z,79.30
2019-03-21T02:31:15.518Z,79.10
2019-03-21T02:33:45.275Z,79.10
2019-03-21T02:36:13.524Z,78.50
2019-03-21T02:38:42.151Z,78.80
2019-03-21T02:41:13.427Z,78.90
2019-03-21T02:43:41.953Z,78.80
2019-03-21T02:46:10.482Z,79.20
2019-03-21T02:48:38.977Z,79.20
2019-03-21T02:51:08.280Z,78.60
2019-03-21T02:53:36.860Z,78.40
2019-03-21T02:56:09.059Z,78.90
2019-03-21T02:58:37.591Z,78.90
2019-03-21T03:01:06.054Z,79.10
2019-03-21T03:03:34.619Z,79.20
2019-03-21T03:06:03.153Z,80.50
2019-03-21T03:08:31.741Z,80.20
2019-03-21T03:11:03.345Z,80.00
2019-03-21T03:13:31.976Z,80.30
2019-03-21T03:16:00.433Z,80.50
2019-03-21T03:18:28.916Z,79.50
2019-03-21T03:20:57.523Z,79.90
2019-03-21T03:23:25.994Z,80.20
2019-03-21T03:25:54.492Z,79.90
2019-03-21T03:28:32.072Z,79.90
2019-03-21T03:31:00.668Z,79.70
2019-03-21T03:33:29.917Z,79.60
2019-03-21T03:35:58.457Z,79.70
2019-03-21T03:38:27.065Z,80.00
2019-03-21T03:41:02.791Z,79.90
2019-03-21T03:43:31.279Z,80.00
2019-03-21T03:45:59.818Z,79.70
2019-03-21T03:48:28.789Z,79.70
2019-03-21T03:50:57.355Z,80.00
2019-03-21T03:53:25.894Z,79.90
2019-03-21T03:55:54.424Z,80.20
2019-03-21T03:58:27.703Z,80.50
2019-03-21T04:00:57.089Z,80.60
2019-03-21T04:03:27.367Z,80.40
2019-03-21T04:05:56.115Z,80.40
2019-03-21T04:08:24.579Z,80.90
2019-03-21T04:10:54.549Z,80.80
2019-03-21T04:13:23.127Z,81.10
2019-03-21T04:15:53.804Z,81.10
2019-03-21T04:18:23.882Z,80.80
2019-03-21T04:21:10.223Z,80.70
2019-03-21T04:23:38.761Z,80.90
2019-03-21T04:26:28.539Z,80.60
2019-03-21T04:28:57.000Z,80.80
2019-03-21T04:31:25.458Z,80.80
2019-03-21T04:33:57.092Z,81.10
2019-03-21T04:36:25.748Z,80.90
2019-03-21T04:38:54.301Z,81.10
2019-03-21T04:41:22.869Z,81.30
2019-03-21T04:43:51.395Z,81.50
2019-03-21T04:46:19.929Z,81.30
2019-03-21T04:48:48.420Z,81.60
2019-03-21T04:51:16.885Z,81.60
2019-03-21T04:53:45.354Z,81.60
2019-03-21T04:56:13.932Z,81.80
2019-03-21T04:58:42.455Z,81.50
2019-03-21T05:01:10.907Z,81.20
2019-03-21T05:03:39.390Z,81.20
2019-03-21T05:06:07.856Z,81.30
2019-03-21T05:08:36.323Z,81.10
2019-03-21T05:11:04.815Z,80.60
2019-03-21T05:13:33.271Z,80.80
2019-03-21T05:16:01.859Z,80.80
2019-03-21T05:18:33.838Z,80.50
2019-03-21T05:21:04.359Z,80.60
2019-03-21T05:23:32.836Z,80.20
2019-03-21T05:26:03.842Z,80.00
2019-03-21T05:28:31.507Z,80.10
2019-03-21T05:31:12.326Z,79.10
2019-03-21T05:33:40.847Z,79.40
2019-03-21T05:36:09.311Z,79.20
2019-03-21T05:38:38.034Z,78.50
2019-03-21T05:41:06.495Z,78.20
2019-03-21T05:43:43.939Z,78.80
2019-03-21T05:46:12.467Z,77.90
2019-03-21T05:48:40.919Z,77.50
2019-03-21T05:51:09.415Z,78.00
2019-03-21T05:53:37.875Z,77.50
2019-03-21T05:56:06.575Z,77.70
2019-03-21T05:58:35.143Z,76.90
2019-03-21T06:01:09.472Z,77.00
2019-03-21T06:03:51.494Z,76.70
2019-03-21T06:06:25.613Z,76.80
2019-03-21T06:08:54.144Z,76.20
2019-03-21T06:11:22.860Z,76.30
2019-03-21T06:13:51.394Z,75.40
2019-03-21T06:16:19.847Z,75.60
2019-03-21T06:18:54.011Z,76.10
2019-03-21T06:21:40.476Z,74.90
2019-03-21T06:24:26.995Z,74.70
2019-03-21T06:27:27.047Z,74.20
2019-03-21T06:29:55.979Z,74.60
2019-03-21T06:32:25.700Z,74.70
2019-03-21T06:34:53.665Z,74.10
2019-03-21T06:37:22.240Z,74.00
2019-03-21T06:39:50.996Z,74.20
2019-03-21T06:42:19.531Z,73.80
2019-03-21T06:44:48.037Z,74.60
2019-03-21T06:47:16.578Z,73.30
2019-03-21T06:49:46.587Z,73.40
2019-03-21T06:52:15.307Z,72.80
2019-03-21T06:54:43.785Z,73.60
2019-03-21T06:57:12.336Z,73.60
2019-03-21T06:59:40.835Z,73.20
2019-03-21T07:02:09.369Z,73.70
2019-03-21T07:04:37.825Z,73.30
2019-03-21T07:07:08.510Z,72.60
2019-03-21T07:09:36.596Z,72.60
2019-03-21T07:12:05.272Z,72.60
2019-03-21T07:14:33.763Z,71.70
2019-03-21T07:17:02.252Z,71.80
2019-03-21T07:19:30.779Z,71.90
2019-03-21T07:21:59.295Z,71.70
2019-03-21T07:24:27.831Z,72.20
2019-03-21T07:26:56.356Z,71.20
2019-03-21T07:29:24.928Z,71.10
2019-03-21T07:31:53.473Z,71.50
2019-03-21T07:34:22.008Z,71.30
2019-03-21T07:36:50.587Z,71.10
2019-03-21T07:39:19.120Z,71.60
2019-03-21T07:41:47.832Z,71.00
2019-03-21T07:44:16.379Z,71.20
2019-03-21T07:46:44.860Z,71.20
2019-03-21T07:49:13.319Z,70.80
2019-03-21T07:51:41.896Z,70.50
2019-03-21T07:54:10.374Z,70.50
2019-03-21T07:56:38.923Z,70.50
2019-03-21T07:59:07.468Z,71.50
2019-03-21T08:01:35.997Z,69.40
2019-03-21T08:04:04.639Z,70.30
2019-03-21T08:06:33.211Z,71.30
2019-03-21T08:09:01.687Z,69.50
2019-03-21T08:11:30.147Z,70.00
2019-03-21T08:13:58.802Z,70.20
2019-03-21T08:16:30.522Z,69.10
2019-03-21T08:18:58.996Z,68.60
2019-03-21T08:21:27.491Z,68.80
2019-03-21T08:23:56.047Z,69.60
2019-03-21T08:26:24.680Z,68.80
2019-03-21T08:28:53.224Z,68.80
2019-03-21T08:31:21.758Z,70.00
2019-03-21T08:33:50.298Z,68.80
2019-03-21T08:36:18.800Z,68.90
2019-03-21T08:38:48.720Z,69.60
2019-03-21T08:41:17.273Z,68.10
2019-03-21T08:43:46.720Z,69.00
2019-03-21T08:46:15.251Z,68.00
2019-03-21T08:48:43.889Z,68.60
2019-03-21T08:51:14.235Z,68.40
2019-03-21T08:53:42.791Z,68.60
2019-03-21T08:56:11.269Z,69.00
2019-03-21T08:58:39.835Z,69.30
2019-03-21T09:01:08.364Z,69.00
2019-03-21T09:03:36.829Z,68.40
2019-03-21T09:06:05.456Z,68.70
2019-03-21T09:08:33.997Z,68.70
2019-03-21T09:11:02.520Z,68.60
2019-03-21T09:13:31.009Z,68.70
2019-03-21T09:15:59.547Z,69.00
2019-03-21T09:18:28.083Z,68.80
2019-03-21T09:20:57.456Z,68.40
2019-03-21T09:23:25.993Z,68.80
2019-03-21T09:25:54.456Z,68.00
2019-03-21T09:28:22.965Z,67.80
2019-03-21T09:30:51.499Z,67.70
2019-03-21T09:33:20.221Z,68.10
2019-03-21T09:35:49.992Z,67.80
2019-03-21T09:38:17.667Z,66.70
2019-03-21T09:40:46.143Z,66.80
2019-03-21T09:43:14.655Z,66.60
2019-03-21T09:45:43.405Z,66.90
2019-03-21T09:48:11.864Z,67.70
2019-03-21T09:50:40.372Z,65.80
2019-03-21T09:53:08.839Z,65.80
2019-03-21T09:55:37.295Z,66.10
2019-03-21T09:58:05.811Z,65.00
2019-03-21T10:00:36.094Z,65.10
2019-03-21T10:03:05.576Z,65.90
2019-03-21T10:05:34.162Z,65.10
2019-03-21T10:08:03.081Z,64.50
2019-03-21T10:10:34.050Z,64.20
2019-03-21T10:13:02.605Z,64.90
2019-03-21T10:15:31.153Z,64.30
2019-03-21T10:17:59.969Z,64.30
2019-03-21T10:20:28.532Z,63.40
2019-03-21T10:22:57.081Z,62.90
2019-03-21T10:25:26.823Z,61.90
2019-03-21T10:27:55.605Z,63.00
2019-03-21T10:30:35.224Z,62.80
2019-03-21T10:33:03.907Z,63.80
2019-03-21T10:35:32.817Z,63.70
2019-03-21T10:38:01.522Z,63.10
2019-03-21T10:40:30.084Z,63.60
2019-03-21T10:42:58.953Z,63.70
2019-03-21T10:45:27.479Z,63.80
2019-03-21T10:47:56.142Z,62.70
2019-03-21T10:50:35.880Z,63.30
2019-03-21T10:53:03.964Z,63.20
2019-03-21T10:55:32.443Z,63.00
2019-03-21T10:58:00.992Z,63.30
2019-03-21T11:00:29.630Z,64.50
2019-03-21T11:02:58.161Z,65.00
2019-03-21T11:05:26.695Z,65.50
2019-03-21T11:07:55.184Z,65.00
2019-03-21T11:10:23.674Z,66.10
2019-03-21T11:12:52.345Z,65.50
2019-03-21T11:15:20.839Z,65.50
2019-03-21T11:17:49.949Z,65.20
2019-03-21T11:20:38.510Z,65.20
2019-03-21T11:23:07.681Z,65.50
2019-03-21T11:25:36.359Z,67.30
2019-03-21T11:28:05.092Z,68.10
2019-03-21T11:30:35.783Z,69.40
2019-03-21T11:33:04.788Z,70.50
2019-03-21T11:35:33.462Z,71.30
2019-03-21T11:38:01.998Z,71.10
2019-03-21T11:40:30.545Z,71.40
2019-03-21T11:42:59.560Z,70.90
2019-03-21T11:45:28.109Z,71.20
2019-03-21T11:48:00.479Z,72.60
2019-03-21T11:50:29.066Z,73.50
2019-03-21T11:52:57.599Z,73.70
2019-03-21T11:55:26.236Z,73.60
2019-03-21T11:57:54.919Z,73.50
2019-03-21T12:00:23.535Z,72.30
2019-03-21T12:02:52.134Z,71.70
2019-03-21T12:05:20.709Z,72.70
2019-03-21T12:07:49.235Z,76.20
2019-03-21T12:10:18.040Z,76.00
2019-03-21T12:12:46.668Z,75.30
2019-03-21T12:15:15.265Z,74.90
2019-03-21T12:17:43.800Z,74.20
2019-03-21T12:20:26.929Z,74.20
2019-03-21T12:22:56.637Z,74.60
2019-03-21T12:25:29.615Z,75.10
2019-03-21T12:27:58.275Z,74.80
2019-03-21T12:30:35.097Z,73.80
2019-03-21T12:33:03.704Z,73.20
2019-03-21T12:38:08.377Z,75.70
2019-03-21T12:40:36.987Z,75.10
2019-03-21T12:43:07.303Z,75.60
2019-03-21T12:45:35.869Z,75.20
2019-03-21T12:48:04.560Z,74.70
2019-03-21T12:50:33.030Z,74.40
2019-03-21T12:53:01.868Z,74.20
2019-03-21T12:55:30.417Z,74.90
2019-03-21T12:57:58.956Z,75.50
2019-03-21T13:00:32.835Z,75.20
2019-03-21T13:03:01.397Z,75.50
2019-03-21T13:05:30.970Z,74.40
2019-03-21T13:07:59.458Z,74.50
2019-03-21T13:10:27.991Z,74.90
2019-03-21T13:12:56.457Z,75.90
2019-03-21T13:15:29.899Z,75.30
2019-03-21T13:17:55.136Z,75.20
2019-03-21T13:20:23.605Z,75.60
2019-03-21T13:22:53.376Z,75.50
2019-03-21T13:25:22.165Z,74.90
2019-03-21T13:27:55.518Z,74.90
2019-03-21T13:30:24.815Z,74.70
2019-03-21T13:32:53.332Z,74.60
2019-03-21T13:35:32.122Z,74.80
2019-03-21T13:37:53.992Z,74.80
2019-03-21T13:40:22.357Z,75.30
2019-03-21T13:42:50.902Z,75.60
2019-03-21T13:45:19.465Z,76.20
2019-03-21T13:47:47.973Z,75.30
2019-03-21T13:50:16.602Z,75.60
2019-03-21T13:52:45.208Z,76.00
2019-03-21T13:55:14.136Z,77.20
2019-03-21T13:57:42.668Z,77.10
2019-03-21T14:00:17.327Z,76.50
2019-03-21T14:02:45.780Z,76.20
2019-03-21T14:05:14.983Z,77.00
2019-03-21T14:07:43.567Z,77.70
2019-03-21T14:10:12.198Z,78.60
2019-03-21T14:12:40.761Z,78.10
2019-03-21T14:15:12.419Z,77.70
2019-03-21T14:17:40.930Z,77.80
2019-03-21T14:20:11.008Z,77.70
2019-03-21T14:22:39.593Z,77.50
2019-03-21T14:25:08.264Z,77.70
2019-03-21T14:27:36.919Z,77.30
2019-03-21T14:30:11.262Z,76.60
2019-03-21T14:32:39.833Z,75.90
2019-03-21T14:35:08.797Z,76.10
2019-03-21T14:37:46.994Z,75.50
2019-03-21T14:40:15.811Z,76.10
2019-03-21T14:42:44.753Z,76.80
2019-03-21T14:45:15.396Z,75.60
2019-03-21T14:47:44.299Z,74.10
2019-03-21T14:50:16.820Z,73.50
2019-03-21T14:52:45.460Z,72.80
2019-03-21T14:55:15.598Z,70.90
2019-03-21T14:57:44.962Z,69.70
2019-03-21T15:00:15.989Z,65.70
2019-03-21T15:02:44.535Z,61.40
2019-03-21T15:05:14.155Z,58.80
2019-03-21T15:07:42.731Z,57.60
2019-03-21T15:10:17.011Z,55.80
2019-03-21T15:12:45.565Z,55.00
2019-03-21T15:15:15.264Z,53.40
2019-03-21T15:17:43.983Z,53.70
2019-03-21T15:20:15.584Z,54.00
2019-03-21T15:22:44.143Z,51.40
2019-03-21T15:25:13.503Z,51.80
2019-03-21T15:27:42.105Z,54.80
2019-03-21T15:30:13.621Z,52.60
2019-03-21T15:32:42.301Z,53.10
2019-03-21T15:35:13.707Z,56.40
2019-03-21T15:37:42.174Z,58.60
2019-03-21T15:40:15.678Z,61.80
2019-03-21T15:42:44.479Z,64.60
2019-03-21T15:45:22.760Z,63.20
2019-03-21T15:47:47.819Z,60.20
2019-03-21T15:50:30.584Z,60.10
2019-03-21T15:52:59.349Z,59.00
2019-03-21T15:55:28.032Z,60.50
2019-03-21T15:57:56.620Z,63.30
2019-03-21T16:00:34.312Z,65.00
2019-03-21T16:03:04.036Z,66.00
2019-03-21T16:05:31.711Z,67.50
2019-03-21T16:08:00.183Z,69.90
2019-03-21T16:10:28.962Z,70.70
2019-03-21T16:12:57.419Z,70.90
2019-03-21T16:15:26.349Z,71.80
2019-03-21T16:17:54.983Z,72.20
2019-03-21T16:20:23.605Z,72.60
2019-03-21T16:22:52.248Z,72.80
2019-03-21T16:25:20.820Z,73.40
2019-03-21T16:27:49.962Z,73.80
2019-03-21T16:30:21.305Z,74.20
2019-03-21T16:32:49.928Z,74.80
2019-03-21T16:35:18.582Z,73.90
2019-03-21T16:37:48.220Z,74.60
2019-03-21T16:40:17.161Z,74.50
2019-03-21T16:42:45.715Z,74.50
2019-03-21T16:45:16.068Z,73.90
2019-03-21T16:47:44.832Z,74.80
2019-03-21T16:50:14.611Z,75.50
2019-03-21T16:52:43.217Z,76.10
2019-03-21T16:55:13.977Z,77.30
2019-03-21T16:57:42.952Z,78.10
2019-03-21T17:00:14.383Z,79.70
2019-03-21T17:02:43.003Z,80.00
2019-03-21T17:05:12.312Z,79.50
2019-03-21T17:07:40.871Z,79.50
2019-03-21T17:10:11.769Z,79.40
2019-03-21T17:12:40.839Z,80.40
2019-03-21T17:17:45.431Z,80.70
2019-03-21T17:20:14.598Z,81.50
2019-03-21T17:22:43.145Z,81.40
2019-03-21T17:25:12.430Z,81.60
2019-03-21T17:27:40.899Z,81.70
2019-03-21T17:30:12.283Z,81.90
2019-03-21T17:32:40.883Z,82.40
2019-03-21T17:35:09.591Z,82.00
2019-03-21T17:37:38.861Z,82.60
2019-03-21T17:40:10.115Z,83.10
2019-03-21T17:42:38.721Z,84.10
2019-03-21T17:45:10.619Z,84.50
2019-03-21T17:47:39.199Z,84.70
2019-03-21T17:50:08.510Z,85.00
2019-03-21T17:52:36.971Z,85.40
2019-03-21T17:55:07.176Z,85.20
2019-03-21T17:57:35.720Z,86.40
2019-03-21T18:00:07.329Z,87.40
2019-03-21T18:02:35.896Z,88.30
2019-03-21T18:05:07.239Z,88.90
2019-03-21T18:07:35.692Z,89.00
2019-03-21T18:10:06.914Z,88.90
2019-03-21T18:12:35.516Z,88.80
2019-03-21T18:15:06.835Z,88.80
2019-03-21T18:17:35.331Z,89.20
2019-03-21T18:20:04.942Z,89.90
2019-03-21T18:22:33.400Z,90.10
2019-03-21T18:25:01.907Z,89.60
2019-03-21T18:27:30.372Z,90.00
2019-03-21T18:29:58.915Z,90.00
2019-03-21T18:32:27.499Z,90.00
2019-03-21T18:34:56.039Z,90.10
2019-03-21T18:37:24.595Z,90.30
2019-03-21T18:39:53.208Z,90.60
2019-03-21T18:42:21.668Z,90.70
2019-03-21T18:44:50.596Z,91.00
2019-03-21T18:47:19.208Z,91.10
2019-03-21T18:49:48.820Z,91.30
2019-03-21T18:52:17.391Z,91.50
2019-03-21T18:54:45.884Z,91.40
2019-03-21T18:57:14.363Z,91.70
2019-03-21T18:59:42.963Z,91.70
2019-03-21T19:02:11.539Z,91.70
2019-03-21T19:04:40.005Z,91.60
2019-03-21T19:07:08.649Z,91.60
2019-03-21T19:09:37.231Z,91.50
2019-03-21T19:12:05.784Z,91.10
2019-03-21T19:14:34.331Z,91.00
2019-03-21T19:17:02.829Z,90.80
2019-03-21T19:19:31.290Z,90.60
2019-03-21T19:21:59.933Z,90.50
2019-03-21T19:24:28.563Z,90.40
2019-03-21T19:26:57.093Z,90.60
2019-03-21T19:29:25.575Z,90.60
2019-03-21T19:31:54.084Z,90.60
2019-03-21T19:34:22.556Z,90.90
2019-03-21T19:36:51.058Z,91.10
2019-03-21T19:39:19.648Z,91.50
2019-03-21T19:41:49.899Z,91.70
2019-03-21T19:44:18.447Z,91.90
2019-03-21T19:46:46.944Z,92.00
2019-03-21T19:49:15.419Z,92.00
2019-03-21T19:51:43.962Z,91.90
2019-03-21T19:54:12.541Z,92.20
2019-03-21T19:56:41.174Z,92.60
2019-03-21T19:59:12.392Z,92.60
2019-03-21T20:01:43.426Z,92.20
2019-03-21T20:04:12.564Z,92.60
2019-03-21T20:06:41.539Z,92.90
2019-03-21T20:09:10.254Z,93.40
2019-03-21T20:11:38.807Z,93.30
2019-03-21T20:14:07.357Z,93.10
2019-03-21T20:16:35.911Z,93.10
2019-03-21T20:19:04.543Z,93.00
2019-03-21T20:21:33.040Z,92.70
2019-03-21T20:24:01.636Z,93.00
2019-03-21T20:26:30.243Z,93.10
2019-03-21T20:28:58.793Z,92.90
2019-03-21T20:31:27.359Z,92.70
2019-03-21T20:33:55.911Z,92.50
2019-03-21T20:36:24.385Z,92.30
2019-03-21T20:38:54.156Z,92.20
2019-03-21T20:41:22.127Z,92.00
2019-03-21T20:43:52.562Z,91.90
2019-03-21T20:46:21.152Z,91.90
2019-03-21T20:48:53.322Z,91.70
2019-03-21T20:51:23.774Z,91.80
2019-03-21T20:53:52.512Z,92.00
2019-03-21T20:56:20.984Z,91.90
2019-03-21T20:58:55.527Z,91.70
2019-03-21T21:01:24.186Z,92.00
2019-03-21T21:03:52.776Z,92.10
2019-03-21T21:06:24.576Z,92.20
2019-03-21T21:08:53.104Z,91.90
2019-03-21T21:11:22.660Z,91.40
2019-03-21T21:13:51.211Z,91.40
2019-03-21T21:16:19.730Z,91.10
2019-03-21T21:18:48.292Z,90.90
2019-03-21T21:21:16.797Z,91.00
2019-03-21T21:23:45.347Z,91.40
2019-03-21T21:26:13.893Z,91.70
2019-03-21T21:28:45.369Z,91.80
2019-03-21T21:31:14.011Z,91.80
2019-03-21T21:33:42.577Z,91.60
2019-03-21T21:36:21.612Z,91.20
2019-03-21T21:38:41.336Z,91.20
2019-03-21T21:41:09.882Z,90.90
2019-03-21T21:43:38.410Z,91.20
2019-03-21T21:46:06.917Z,91.40
2019-03-21T21:48:35.451Z,91.60
2019-03-21T21:51:03.921Z,91.70
2019-03-21T21:53:32.487Z,91.50
2019-03-21T21:56:00.952Z,91.50
2019-03-21T21:58:29.410Z,91.40
2019-03-21T22:00:57.920Z,91.30
2019-03-21T22:03:26.461Z,91.00
2019-03-21T22:05:54.991Z,90.80
2019-03-21T22:08:23.501Z,91.00
2019-03-21T22:10:52.178Z,91.20
2019-03-21T22:13:21.391Z,91.30
2019-03-21T22:15:49.900Z,91.20
2019-03-21T22:18:18.363Z,91.20
2019-03-21T22:20:46.844Z,91.30
2019-03-21T22:23:15.347Z,91.20
2019-03-21T22:25:43.884Z,91.50
2019-03-21T22:28:12.339Z,91.70
2019-03-21T22:30:40.840Z,91.60
2019-03-21T22:33:09.304Z,91.70
2019-03-21T22:35:37.763Z,91.80
2019-03-21T22:38:06.349Z,91.80
2019-03-21T22:40:35.287Z,91.70
2019-03-21T22:43:03.747Z,91.30
2019-03-21T22:45:32.323Z,91.60
2019-03-21T22:48:00.787Z,91.30
2019-03-21T22:50:29.258Z,91.00
2019-03-21T22:52:57.750Z,90.70
2019-03-21T22:55:26.216Z,90.50
2019-03-21T22:57:54.690Z,90.60
2019-03-21T23:00:25.159Z,90.80
2019-03-21T23:02:53.628Z,91.00
2019-03-21T23:05:22.503Z,91.10
2019-03-21T23:07:51.024Z,91.10
2019-03-21T23:10:19.627Z,91.30
2019-03-21T23:12:48.230Z,91.20
2019-03-21T23:15:17.936Z,90.70
2019-03-21T23:17:46.464Z,90.60
2019-03-21T23:20:15.661Z,90.70
2019-03-21T23:22:44.323Z,90.80
2019-03-21T23:25:16.264Z,90.60
2019-03-21T23:27:44.335Z,90.60
2019-03-21T23:30:18.143Z,90.60
2019-03-21T23:32:46.607Z,90.90
2019-03-21T23:35:15.219Z,91.00
2019-03-21T23:37:43.866Z,90.80
2019-03-21T23:40:15.747Z,91.10
2019-03-21T23:42:44.359Z,90.70
2019-03-21T23:45:13.912Z,90.90
2019-03-21T23:47:42.523Z,90.60
2019-03-21T23:50:13.431Z,90.80
2019-03-21T23:52:42.070Z,91.00
2019-03-21T23:55:11.367Z,91.10
2019-03-21T23:57:39.847Z,91.30
